createdAt,value
2023-01-29T00:02:07.421Z,100165.77
2023-01-29T00:04:38.332Z,100166.77
2023-01-29T00:07:09.379Z,100162.16
2023-01-29T00:09:40.425Z,100166.14
2023-01-29T00:12:11.143Z,100170.40
2023-01-29T00:14:41.847Z,100173.13
2023-01-29T00:17:12.854Z,100177.04
2023-01-29T00:19:43.581Z,100170.26
2023-01-29T00:22:14.627Z,100160.61
2023-01-29T00:24:46.078Z,100151.02
2023-01-29T00:27:16.794Z,100161.91
2023-01-29T00:30:07.552Z,100167.24
2023-01-29T00:32:38.359Z,100165.71
2023-01-29T00:35:11.396Z,100168.19
2023-01-29T00:37:42.071Z,100171.72
2023-01-29T00:40:14.425Z,100163.07
2023-01-29T00:43:04.840Z,100166.66
2023-01-29T00:45:36.810Z,100179.10
2023-01-29T00:48:08.665Z,100180.48
2023-01-29T00:50:39.712Z,100182.49
2023-01-29T00:53:10.373Z,100181.30
2023-01-29T00:55:43.465Z,100177.02
2023-01-29T00:58:14.277Z,100179.63
2023-01-29T01:00:44.932Z,100180.92
2023-01-29T01:03:15.656Z,100182.09
2023-01-29T01:05:46.391Z,100182.91
2023-01-29T01:08:35.023Z,100175.23
2023-01-29T01:11:07.443Z,100178.98
2023-01-29T01:13:38.113Z,100185.23
2023-01-29T01:16:14.424Z,100182.62
2023-01-29T01:18:45.282Z,100177.69
2023-01-29T01:21:15.990Z,100178.95
2023-01-29T01:23:47.344Z,100167.36
2023-01-29T01:26:17.981Z,100151.90
2023-01-29T01:28:48.616Z,100143.19
2023-01-29T01:31:19.946Z,100143.63
2023-01-29T01:33:51.662Z,100147.98
2023-01-29T01:36:22.362Z,100139.20
2023-01-29T01:38:53.101Z,100141.20
2023-01-29T01:41:24.595Z,100143.36
2023-01-29T01:43:58.589Z,100139.04
2023-01-29T01:46:32.212Z,100140.41
2023-01-29T01:49:03.521Z,100141.39
2023-01-29T01:51:36.763Z,100137.09
2023-01-29T01:54:13.604Z,100135.80
2023-01-29T01:56:48.589Z,100135.94
2023-01-29T01:59:21.375Z,100126.80
2023-01-29T02:01:55.150Z,100129.13
2023-01-29T02:04:45.675Z,100128.41
2023-01-29T02:07:35.345Z,100127.35
2023-01-29T02:10:11.563Z,100131.62
2023-01-29T02:12:44.005Z,100126.48
2023-01-29T02:15:15.130Z,100125.27
2023-01-29T02:17:48.461Z,100130.81
2023-01-29T02:20:26.657Z,100137.41
2023-01-29T02:23:18.031Z,100141.94
2023-01-29T02:26:17.656Z,100143.52
2023-01-29T02:28:55.485Z,100143.35
2023-01-29T02:31:32.811Z,100147.67
2023-01-29T02:34:26.116Z,100146.63
2023-01-29T02:37:05.271Z,100152.80
2023-01-29T02:39:42.027Z,100150.10
2023-01-29T02:42:17.657Z,100152.08
2023-01-29T02:44:55.471Z,100151.67
2023-01-29T02:47:35.058Z,100145.11
2023-01-29T02:50:15.688Z,100134.92
2023-01-29T02:52:54.284Z,100125.49
2023-01-29T02:55:31.879Z,100121.17
2023-01-29T02:58:07.140Z,100116.39
2023-01-29T03:00:43.874Z,100113.30
2023-01-29T03:03:19.443Z,100118.25
2023-01-29T03:05:58.875Z,100117.33
2023-01-29T03:08:43.347Z,100121.14
2023-01-29T03:11:16.010Z,100122.52
2023-01-29T03:13:52.708Z,100121.77
2023-01-29T03:16:27.636Z,100124.79
2023-01-29T03:19:03.521Z,100130.43
2023-01-29T03:21:55.450Z,100132.61
2023-01-29T03:24:49.051Z,100139.82
2023-01-29T03:27:41.917Z,100142.50
2023-01-29T03:30:34.975Z,100140.70
2023-01-29T03:33:10.519Z,100142.08
2023-01-29T03:35:44.366Z,100144.00
2023-01-29T03:38:16.165Z,100143.17
2023-01-29T03:40:52.109Z,100145.38
2023-01-29T03:43:33.065Z,100140.39
2023-01-29T03:46:11.496Z,100143.77
2023-01-29T03:48:47.149Z,100139.40
2023-01-29T03:51:27.086Z,100140.23
2023-01-29T03:54:07.339Z,100143.63
2023-01-29T03:56:46.477Z,100140.52
2023-01-29T03:59:28.999Z,100136.16
2023-01-29T04:02:01.908Z,100138.92
2023-01-29T04:04:36.567Z,100142.69
2023-01-29T04:07:14.908Z,100141.15
2023-01-29T04:09:51.800Z,100133.27
2023-01-29T04:12:27.963Z,100131.38
2023-01-29T04:15:02.811Z,100125.16
2023-01-29T04:17:38.752Z,100118.45
2023-01-29T04:20:12.946Z,100121.27
2023-01-29T04:22:48.419Z,100123.05
2023-01-29T04:25:26.827Z,100131.88
2023-01-29T04:28:06.090Z,100125.23
2023-01-29T04:30:47.031Z,100118.58
2023-01-29T04:33:35.629Z,100126.39
2023-01-29T04:36:27.553Z,100113.48
2023-01-29T04:39:04.384Z,100103.31
2023-01-29T04:41:40.556Z,100106.05
2023-01-29T04:44:18.154Z,100108.12
2023-01-29T04:46:56.074Z,100102.77
2023-01-29T04:49:36.180Z,100090.11
2023-01-29T04:52:16.954Z,100089.85
2023-01-29T04:55:02.561Z,100088.61
2023-01-29T04:57:42.441Z,100085.91
2023-01-29T05:00:20.259Z,100088.23
2023-01-29T05:02:52.310Z,100084.95
2023-01-29T05:05:23.675Z,100083.13
2023-01-29T05:07:55.364Z,100081.57
2023-01-29T05:10:27.729Z,100083.56
2023-01-29T05:13:02.352Z,100084.35
2023-01-29T05:15:38.356Z,100083.23
2023-01-29T05:18:10.319Z,100084.27
2023-01-29T05:20:44.392Z,100082.15
2023-01-29T05:23:18.598Z,100080.79
2023-01-29T05:25:50.850Z,100085.94
2023-01-29T05:28:21.516Z,100081.33
2023-01-29T05:30:55.207Z,100078.22
2023-01-29T05:33:27.591Z,100077.04
2023-01-29T05:36:00.295Z,100083.88
2023-01-29T05:38:31.019Z,100086.95
2023-01-29T05:41:02.897Z,100087.44
2023-01-29T05:43:33.924Z,100082.40
2023-01-29T05:46:05.304Z,100080.92
2023-01-29T05:48:36.248Z,100074.59
2023-01-29T05:51:07.574Z,100077.31
2023-01-29T05:53:38.419Z,100077.70
2023-01-29T05:56:10.088Z,100074.98
2023-01-29T05:58:41.248Z,100075.34
2023-01-29T06:01:13.667Z,100079.05
2023-01-29T06:03:44.539Z,100081.21
2023-01-29T06:06:15.571Z,100082.10
2023-01-29T06:08:46.297Z,100078.78
2023-01-29T06:11:18.410Z,100073.66
2023-01-29T06:13:49.256Z,100074.91
2023-01-29T06:16:20.154Z,100068.59
2023-01-29T06:18:51.011Z,100077.56
2023-01-29T06:21:21.855Z,100085.31
2023-01-29T06:23:54.990Z,100085.96
2023-01-29T06:26:25.981Z,100083.59
2023-01-29T06:28:56.938Z,100082.16
2023-01-29T06:31:38.350Z,100078.57
2023-01-29T06:34:10.296Z,100089.55
2023-01-29T06:36:41.902Z,100096.55
2023-01-29T06:39:12.952Z,100099.79
2023-01-29T06:41:46.430Z,100096.14
2023-01-29T06:44:17.391Z,100106.64
2023-01-29T06:46:48.267Z,100106.66
2023-01-29T06:49:19.519Z,100101.63
2023-01-29T06:51:50.251Z,100099.20
2023-01-29T06:54:21.110Z,100091.83
2023-01-29T06:56:52.756Z,100091.85
2023-01-29T06:59:23.680Z,100089.76
2023-01-29T07:01:55.056Z,100087.71
2023-01-29T07:04:25.896Z,100091.23
2023-01-29T07:06:56.829Z,100098.73
2023-01-29T07:09:27.773Z,100104.27
2023-01-29T07:11:58.714Z,100110.30
2023-01-29T07:14:29.993Z,100117.60
2023-01-29T07:17:00.799Z,100118.21
2023-01-29T07:19:31.743Z,100115.93
2023-01-29T07:22:03.996Z,100112.61
2023-01-29T07:24:35.307Z,100116.47
2023-01-29T07:27:06.316Z,100123.00
2023-01-29T07:29:37.257Z,100120.92
2023-01-29T07:32:08.398Z,100120.76
2023-01-29T07:34:39.362Z,100122.34
2023-01-29T07:37:12.484Z,100127.79
2023-01-29T07:39:43.613Z,100135.77
2023-01-29T07:42:14.516Z,100140.48
2023-01-29T07:44:45.447Z,100142.20
2023-01-29T07:47:17.339Z,100149.85
2023-01-29T07:49:48.203Z,100159.14
2023-01-29T07:52:20.808Z,100158.67
2023-01-29T07:54:52.931Z,100160.02
2023-01-29T07:57:24.258Z,100159.27
2023-01-29T07:59:55.246Z,100165.54
2023-01-29T08:02:26.082Z,100167.65
2023-01-29T08:04:57.011Z,100171.41
2023-01-29T08:07:28.053Z,100178.72
2023-01-29T08:10:01.751Z,100178.00
2023-01-29T08:12:32.798Z,100175.09
2023-01-29T08:15:03.844Z,100167.37
2023-01-29T08:17:34.621Z,100161.52
2023-01-29T08:20:06.785Z,100153.98
2023-01-29T08:22:38.008Z,100154.80
2023-01-29T08:25:10.387Z,100153.86
2023-01-29T08:27:41.296Z,100159.30
2023-01-29T08:30:14.937Z,100165.77
2023-01-29T08:32:48.009Z,100167.11
2023-01-29T08:35:19.470Z,100175.25
2023-01-29T08:37:56.880Z,100180.72
2023-01-29T08:40:28.902Z,100180.63
2023-01-29T08:43:03.164Z,100184.19
2023-01-29T08:45:38.037Z,100186.58
2023-01-29T08:48:09.831Z,100191.31
2023-01-29T08:50:41.212Z,100193.64
2023-01-29T08:53:13.064Z,100199.74
2023-01-29T08:55:44.112Z,100197.18
2023-01-29T08:58:15.032Z,100194.16
2023-01-29T09:00:45.980Z,100194.08
2023-01-29T09:03:17.051Z,100197.63
2023-01-29T09:05:47.962Z,100197.09
2023-01-29T09:08:18.962Z,100196.33
2023-01-29T09:10:49.747Z,100192.66
2023-01-29T09:13:20.589Z,100187.39
2023-01-29T09:15:51.426Z,100177.40
2023-01-29T09:18:22.479Z,100172.08
2023-01-29T09:20:54.345Z,100165.52
2023-01-29T09:23:25.531Z,100155.73
2023-01-29T09:25:56.332Z,100149.97
2023-01-29T09:28:27.247Z,100142.59
2023-01-29T09:30:58.273Z,100141.85
2023-01-29T09:33:29.412Z,100144.70
2023-01-29T09:36:00.282Z,100140.86
2023-01-29T09:38:31.770Z,100141.46
2023-01-29T09:41:16.204Z,100134.74
2023-01-29T09:43:54.332Z,100132.80
2023-01-29T09:46:30.850Z,100132.70
2023-01-29T09:49:07.960Z,100130.94
2023-01-29T09:51:48.013Z,100129.45
2023-01-29T09:54:24.889Z,100121.20
2023-01-29T09:56:58.575Z,100120.59
2023-01-29T09:59:32.089Z,100129.30
2023-01-29T10:02:11.576Z,100135.34
2023-01-29T10:05:04.974Z,100130.83
2023-01-29T10:07:56.534Z,100130.26
2023-01-29T10:10:37.610Z,100132.64
2023-01-29T10:13:22.444Z,100128.23
2023-01-29T10:16:09.835Z,100124.74
2023-01-29T10:19:07.210Z,100125.77
2023-01-29T10:22:01.945Z,100119.27
2023-01-29T10:24:39.257Z,100125.31
2023-01-29T10:27:17.689Z,100121.16
2023-01-29T10:29:52.007Z,100118.02
2023-01-29T10:32:26.734Z,100114.10
2023-01-29T10:35:01.737Z,100109.83
2023-01-29T10:37:39.093Z,100106.23
2023-01-29T10:40:22.347Z,100095.17
2023-01-29T10:43:01.685Z,100088.19
2023-01-29T10:45:44.831Z,100081.87
2023-01-29T10:48:41.077Z,100075.28
2023-01-29T10:51:23.723Z,100073.15
2023-01-29T10:54:10.258Z,100064.69
2023-01-29T10:56:56.754Z,100067.58
2023-01-29T10:59:45.572Z,100071.86
2023-01-29T11:02:22.807Z,100071.81
2023-01-29T11:04:53.683Z,100065.48
2023-01-29T11:07:27.886Z,100060.74
2023-01-29T11:10:08.894Z,100055.71
2023-01-29T11:12:40.787Z,100057.56
2023-01-29T11:15:21.026Z,100053.53
2023-01-29T11:25:20.654Z,100032.06
2023-01-29T11:27:54.255Z,100033.81
2023-01-29T11:30:28.434Z,100034.77
2023-01-29T11:33:10.119Z,100025.19
2023-01-29T11:35:41.178Z,100021.94
2023-01-29T11:38:23.262Z,100022.52
2023-01-29T11:41:06.295Z,100022.71
2023-01-29T11:43:37.362Z,100023.94
2023-01-29T11:46:16.681Z,100016.29
2023-01-29T11:48:50.435Z,100010.42
2023-01-29T11:51:27.284Z,100006.64
2023-01-29T11:54:01.033Z,100002.48
2023-01-29T11:56:33.222Z,99996.55
2023-01-29T11:59:05.884Z,99990.44
2023-01-29T12:01:39.771Z,99981.83
2023-01-29T12:04:20.183Z,99972.51
2023-01-29T12:06:53.248Z,99969.25
2023-01-29T12:09:27.450Z,99967.92
2023-01-29T12:12:17.969Z,99969.14
2023-01-29T12:15:04.275Z,99972.63
2023-01-29T12:17:39.424Z,99975.98
2023-01-29T12:20:16.571Z,99970.68
2023-01-29T12:22:52.029Z,99965.84
2023-01-29T12:25:32.335Z,99961.77
2023-01-29T12:28:09.708Z,99959.68
2023-01-29T12:30:50.049Z,99953.02
2023-01-29T12:33:30.473Z,99946.04
2023-01-29T12:36:11.011Z,99941.23
2023-01-29T12:38:42.230Z,99940.27
2023-01-29T12:41:31.381Z,99939.08
2023-01-29T12:44:08.434Z,99939.13
2023-01-29T12:46:44.969Z,99942.15
2023-01-29T12:49:20.251Z,99940.35
2023-01-29T12:51:59.293Z,99937.77
2023-01-29T12:54:39.430Z,99939.37
2023-01-29T12:57:21.462Z,99937.91
2023-01-29T12:59:59.405Z,99934.60
2023-01-29T13:02:40.974Z,99933.80
2023-01-29T13:05:21.976Z,99932.90
2023-01-29T13:07:58.039Z,99928.80
2023-01-29T13:10:34.210Z,99930.52
2023-01-29T13:13:13.944Z,99931.80
2023-01-29T13:15:44.432Z,99929.12
2023-01-29T13:18:45.929Z,99931.91
2023-01-29T13:21:20.174Z,99931.20
2023-01-29T13:23:53.944Z,99933.14
2023-01-29T13:26:26.748Z,99932.62
2023-01-29T13:28:59.031Z,99927.98
2023-01-29T13:31:34.688Z,99921.45
2023-01-29T13:34:15.721Z,99915.33
2023-01-29T13:36:50.241Z,99905.46
2023-01-29T13:39:24.980Z,99895.30
2023-01-29T13:41:57.313Z,99889.77
2023-01-29T13:44:31.024Z,99887.00
2023-01-29T13:47:03.426Z,99883.69
2023-01-29T13:49:40.419Z,99877.92
2023-01-29T13:52:24.966Z,99871.55
2023-01-29T13:55:00.518Z,99866.92
2023-01-29T13:57:51.260Z,99867.65
2023-01-29T14:01:00.435Z,99871.23
2023-01-29T14:04:10.142Z,99870.08
2023-01-29T14:06:48.591Z,99869.91
2023-01-29T14:10:06.368Z,99875.59
2023-01-29T14:12:41.024Z,99875.45
2023-01-29T14:15:33.189Z,99868.30
2023-01-29T14:18:27.099Z,99867.73
2023-01-29T14:21:04.073Z,99863.69
2023-01-29T14:23:42.846Z,99866.54
2023-01-29T14:26:27.728Z,99868.05
2023-01-29T14:29:04.978Z,99872.31
2023-01-29T14:31:43.779Z,99878.60
2023-01-29T14:34:23.531Z,99878.73
2023-01-29T14:36:55.657Z,99872.63
2023-01-29T14:39:34.334Z,99872.66
2023-01-29T14:42:17.852Z,99869.88
2023-01-29T14:45:22.936Z,99869.00
2023-01-29T14:48:37.991Z,99857.17
2023-01-29T14:51:15.719Z,99851.76
2023-01-29T14:54:05.668Z,99849.66
2023-01-29T14:56:41.956Z,99849.98
2023-01-29T14:59:23.859Z,99849.59
2023-01-29T15:01:57.901Z,99844.64
2023-01-29T15:04:31.133Z,99844.23
2023-01-29T15:07:05.625Z,99846.53
2023-01-29T15:09:43.915Z,99844.14
2023-01-29T15:12:25.971Z,99844.60
2023-01-29T15:15:06.133Z,99844.88
2023-01-29T15:17:44.047Z,99846.56
2023-01-29T15:20:38.487Z,99842.84
2023-01-29T15:23:27.179Z,99845.58
2023-01-29T15:26:01.741Z,99849.36
2023-01-29T15:28:36.071Z,99851.19
2023-01-29T15:31:13.341Z,99848.88
2023-01-29T15:33:49.832Z,99848.54
2023-01-29T15:36:24.149Z,99847.83
2023-01-29T15:39:18.886Z,99843.20
2023-01-29T15:41:51.034Z,99835.36
2023-01-29T15:44:24.260Z,99832.00
2023-01-29T15:46:57.551Z,99832.73
2023-01-29T15:49:33.155Z,99828.33
2023-01-29T15:52:08.985Z,99825.54
2023-01-29T15:54:40.250Z,99821.23
2023-01-29T15:57:23.696Z,99814.55
2023-01-29T15:59:57.785Z,99809.77
2023-01-29T16:02:41.695Z,99816.81
2023-01-29T16:05:19.769Z,99820.41
2023-01-29T16:07:52.513Z,99823.27
2023-01-29T16:10:26.002Z,99825.63
2023-01-29T16:12:57.371Z,99822.77
2023-01-29T16:15:37.390Z,99822.88
2023-01-29T16:18:25.312Z,99821.64
2023-01-29T16:20:57.782Z,99827.32
2023-01-29T16:23:30.819Z,99822.47
2023-01-29T16:26:15.686Z,99820.26
2023-01-29T16:28:48.287Z,99819.34
2023-01-29T16:31:54.416Z,99815.65
2023-01-29T16:34:29.482Z,99817.69
2023-01-29T16:37:01.613Z,99815.64
2023-01-29T16:39:36.843Z,99817.52
2023-01-29T16:42:33.073Z,99817.36
2023-01-29T16:45:06.411Z,99820.37
2023-01-29T16:47:41.549Z,99817.84
2023-01-29T16:50:46.321Z,99822.25
2023-01-29T16:53:27.507Z,99827.64
2023-01-29T16:56:07.075Z,99825.93
2023-01-29T16:58:38.669Z,99829.41
2023-01-29T17:01:12.815Z,99828.55
2023-01-29T17:03:44.737Z,99827.91
2023-01-29T17:06:24.610Z,99826.33
2023-01-29T17:08:56.998Z,99821.31
2023-01-29T17:11:32.777Z,99817.20
2023-01-29T17:14:04.296Z,99817.03
2023-01-29T17:16:37.972Z,99818.89
2023-01-29T17:19:15.162Z,99816.21
2023-01-29T17:21:47.318Z,99812.71
2023-01-29T17:24:18.400Z,99814.73
2023-01-29T17:26:49.478Z,99812.95
2023-01-29T17:29:22.297Z,99815.99
2023-01-29T17:31:53.505Z,99817.18
2023-01-29T17:34:25.374Z,99805.29
2023-01-29T17:36:57.508Z,99800.81
2023-01-29T17:39:28.809Z,99798.67
2023-01-29T17:42:02.632Z,99799.51
2023-01-29T17:44:34.640Z,99794.09
2023-01-29T17:47:06.264Z,99782.05
2023-01-29T17:49:37.576Z,99777.31
2023-01-29T17:52:09.333Z,99770.28
2023-01-29T17:54:41.019Z,99763.79
2023-01-29T17:57:16.497Z,99762.56
2023-01-29T17:59:48.679Z,99760.30
2023-01-29T18:02:28.918Z,99753.05
2023-01-29T18:05:01.232Z,99747.88
2023-01-29T18:07:32.262Z,99748.53
2023-01-29T18:10:03.400Z,99750.14
2023-01-29T18:12:34.933Z,99748.63
2023-01-29T18:15:06.774Z,99743.14
2023-01-29T18:17:38.851Z,99737.70
2023-01-29T18:20:20.387Z,99736.82
2023-01-29T18:22:51.931Z,99736.64
2023-01-29T18:25:25.709Z,99726.91
2023-01-29T18:27:57.360Z,99729.48
2023-01-29T18:30:28.882Z,99725.95
2023-01-29T18:33:00.297Z,99725.59
2023-01-29T18:35:32.152Z,99724.60
2023-01-29T18:38:04.368Z,99726.21
2023-01-29T18:40:36.390Z,99726.63
2023-01-29T18:43:08.014Z,99732.17
2023-01-29T18:45:39.769Z,99725.77
2023-01-29T18:48:11.352Z,99724.98
2023-01-29T18:50:44.584Z,99721.23
2023-01-29T18:53:15.862Z,99720.29
2023-01-29T18:55:55.069Z,99718.82
2023-01-29T18:58:35.475Z,99719.69
2023-01-29T19:01:09.950Z,99717.97
2023-01-29T19:03:42.459Z,99722.23
2023-01-29T19:06:14.666Z,99723.60
2023-01-29T19:08:47.514Z,99721.20
2023-01-29T19:11:18.549Z,99719.17
2023-01-29T19:13:52.251Z,99717.09
2023-01-29T19:16:23.409Z,99713.63
2023-01-29T19:18:56.281Z,99718.29
2023-01-29T19:21:30.477Z,99720.89
2023-01-29T19:24:01.585Z,99717.62
2023-01-29T19:26:34.236Z,99718.61
2023-01-29T19:29:05.468Z,99713.69
2023-01-29T19:31:36.667Z,99713.59
2023-01-29T19:34:08.233Z,99712.77
2023-01-29T19:36:39.466Z,99714.15
2023-01-29T19:39:16.115Z,99716.64
2023-01-29T19:41:47.120Z,99713.81
2023-01-29T19:44:18.218Z,99712.82
2023-01-29T19:46:49.823Z,99704.47
2023-01-29T19:49:20.986Z,99704.55
2023-01-29T19:51:52.016Z,99701.00
2023-01-29T19:54:22.795Z,99700.45
2023-01-29T19:56:53.591Z,99702.49
2023-01-29T19:59:24.631Z,99700.98
2023-01-29T20:01:58.322Z,99698.20
2023-01-29T20:04:29.489Z,99700.65
2023-01-29T20:07:00.411Z,99698.61
2023-01-29T20:09:31.549Z,99692.86
2023-01-29T20:12:02.521Z,99692.30
2023-01-29T20:14:33.434Z,99688.66
2023-01-29T20:17:06.400Z,99682.27
2023-01-29T20:19:38.700Z,99677.67
2023-01-29T20:22:09.460Z,99671.76
2023-01-29T20:24:42.634Z,99673.40
2023-01-29T20:27:13.757Z,99669.73
2023-01-29T20:29:45.342Z,99662.96
2023-01-29T20:32:16.171Z,99660.69
2023-01-29T20:34:52.162Z,99654.48
2023-01-29T20:37:23.524Z,99649.29
2023-01-29T20:39:54.498Z,99647.02
2023-01-29T20:42:25.573Z,99636.34
2023-01-29T20:44:56.331Z,99630.65
2023-01-29T20:47:27.255Z,99628.52
2023-01-29T20:49:59.893Z,99620.31
2023-01-29T20:52:30.671Z,99616.95
2023-01-29T20:55:01.630Z,99608.77
2023-01-29T20:57:32.659Z,99611.48
2023-01-29T21:00:03.818Z,99609.24
2023-01-29T21:02:34.670Z,99600.89
2023-01-29T21:05:06.831Z,99601.30
2023-01-29T21:07:37.572Z,99599.98
2023-01-29T21:10:10.395Z,99597.35
2023-01-29T21:12:41.189Z,99590.60
2023-01-29T21:15:15.100Z,99590.55
2023-01-29T21:17:48.561Z,99593.52
2023-01-29T21:20:20.441Z,99590.59
2023-01-29T21:22:51.291Z,99587.09
2023-01-29T21:25:23.258Z,99579.10
2023-01-29T21:27:53.978Z,99576.77
2023-01-29T21:30:24.809Z,99575.54
2023-01-29T21:32:55.547Z,99570.30
2023-01-29T21:35:26.310Z,99572.98
2023-01-29T21:37:57.191Z,99572.70
2023-01-29T21:40:29.985Z,99574.54
2023-01-29T21:43:12.884Z,99576.38
2023-01-29T21:45:44.229Z,99574.60
2023-01-29T21:48:15.212Z,99578.42
2023-01-29T21:50:48.756Z,99581.98
2023-01-29T21:53:18.171Z,99586.26
2023-01-29T21:55:49.431Z,99585.16
2023-01-29T21:58:21.082Z,99586.06
2023-01-29T22:00:52.230Z,99585.02
2023-01-29T22:03:23.279Z,99587.48
2023-01-29T22:05:54.450Z,99582.89
2023-01-29T22:08:25.087Z,99585.55
2023-01-29T22:10:55.757Z,99582.13
2023-01-29T22:13:26.513Z,99576.33
2023-01-29T22:15:58.891Z,99571.71
2023-01-29T22:18:29.932Z,99561.81
2023-01-29T22:21:02.691Z,99555.95
2023-01-29T22:23:33.918Z,99553.06
2023-01-29T22:26:09.131Z,99550.81
2023-01-29T22:28:40.131Z,99543.24
2023-01-29T22:31:11.301Z,99540.30
2023-01-29T22:33:42.040Z,99543.95
2023-01-29T22:36:13.323Z,99536.48
2023-01-29T22:38:47.246Z,99538.48
2023-01-29T22:41:18.358Z,99533.39
2023-01-29T22:43:49.081Z,99521.04
2023-01-29T22:46:19.795Z,99515.45
2023-01-29T22:48:50.561Z,99510.42
2023-01-29T22:51:22.133Z,99505.30
2023-01-29T22:53:55.117Z,99494.48
2023-01-29T22:56:29.543Z,99492.52
2023-01-29T22:59:01.997Z,99495.27
2023-01-29T23:01:34.222Z,99497.16
2023-01-29T23:04:05.093Z,99493.82
2023-01-29T23:06:35.900Z,99489.98
2023-01-29T23:09:07.034Z,99489.02
2023-01-29T23:11:37.737Z,99484.95
2023-01-29T23:14:08.373Z,99483.30
2023-01-29T23:16:38.980Z,99481.89
2023-01-29T23:19:11.188Z,99473.74
2023-01-29T23:21:41.879Z,99471.04
2023-01-29T23:24:13.456Z,99463.85
2023-01-29T23:27:01.688Z,99449.36
2023-01-29T23:29:32.351Z,99448.94
2023-01-29T23:32:03.752Z,99443.41
2023-01-29T23:34:34.456Z,99439.05
2023-01-29T23:37:05.716Z,99429.11
2023-01-29T23:39:36.367Z,99423.05
2023-01-29T23:42:07.317Z,99416.79
2023-01-29T23:44:37.965Z,99409.83
2023-01-29T23:47:09.157Z,99409.60
2023-01-29T23:49:39.852Z,99401.90
2023-01-29T23:52:10.505Z,99399.84
2023-01-29T23:54:41.285Z,99392.89
2023-01-29T23:57:11.927Z,99396.31
2023-01-29T23:59:42.725Z,99391.85
